• Join FlightAware (Why Join?)
  • Login
  • US Flag 
06:14AM EDT


 

Airport Tracker/Info


-or-


 

Live Flight TrackerFlight Track Log ✈ ASQ6151 ✈ 09-Jul-2013 ✈ KBWI - KORD

Flight Track Log - Related Links

Times and Time Zones

All times are in EDT time to prevent confusion due to time zone crossing. See the ASQ6151 flight status page for this flight to view local times or setup timezone preferences in your user account.

Time Position Orientation Groundspeed Altitude Reporting Facility
EDT Latitude Longitude Course Direction KTS MPH feet Rate Location/Type
05:41AM 39.1833 -76.7333 218° Southwest 182 209 2,000  Level Potomac TRACON
05:42AM 39.1833 -76.8167 270° West 230 265 4,300 2,520 Climbing Potomac TRACON
05:43AM 39.2000 -77.0343 270° West  Level FlightAware Approximate
05:44AM 39.1936 -77.1564 218° Southwest  Level FlightAware Approximate
05:44AM 39.1994 -76.9550 279° West 237 273 9,100  Level Washington Center
05:45AM 39.1107 -77.2232 211° Southwest  Level FlightAware Approximate
05:45AM 39.1653 -77.0453 244° Southwest 242 278 10,600  Level Washington Center
05:46AM 39.0275 -77.2892 218° Southwest  Level FlightAware Approximate
05:46AM 39.1283 -77.1514 246° West 291 335 11,900  Level Washington Center
05:47AM 39.0894 -77.2656 246° West 330 380 13,700 1,680 Climbing Washington Center
05:48AM 39.0481 -77.3822 245° Southwest 347 399 15,400 1,620 Climbing Washington Center
05:49AM 39.0089 -77.4964 246° West 353 406 17,100 1,500 Climbing Washington Center
05:50AM 38.9653 -77.6153 245° Southwest 358 412 18,500 1,320 Climbing Washington Center
05:51AM 38.9442 -77.7400 258° West 358 412 19,800 1,260 Climbing Washington Center
05:52AM 38.9464 -77.8578 271° West 364 419 21,000 1,140 Climbing Washington Center
05:53AM 38.9519 -77.9914 273° West 375 432 22,200 1,200 Climbing Washington Center
05:54AM 38.9575 -78.1250 273° West 375 432 23,500 1,260 Climbing Washington Center
05:55AM 38.9611 -78.2586 272° West 380 437 24,700 1,200 Climbing Washington Center
05:56AM 38.9661 -78.3950 273° West 380 437 26,000 1,260 Climbing Washington Center
05:57AM 38.9692 -78.5286 272° West 385 443 27,300 1,320 Climbing Washington Center
05:58AM 38.9722 -78.6594 272° West 380 437 28,700 1,440 Climbing Washington Center
05:59AM 38.9772 -78.7906 273° West 380 437 30,200 1,440 Climbing Washington Center
06:00AM 38.9800 -78.9161 272° West 369 425 31,700 1,380 Climbing Washington Center
06:01AM 38.9828 -79.0444 272° West 364 419 33,100 1,320 Climbing Washington Center
06:02AM 38.9875 -79.1675 273° West 359 413 34,400 1,140 Climbing Washington Center
06:03AM 38.9900 -79.2933 272° West 353 406 35,400 780 Climbing Washington Center
06:04AM 38.9922 -79.4161 271° West 348 400 36,000 300 Climbing Washington Center
06:05AM 38.9964 -79.5447 272° West 353 406 36,000  Level Washington Center
06:06AM 39.0014 -79.7053 272° West 392 451 36,000  Level Washington Center
06:07AM 39.0025 -79.8522 271° West 406 467 36,000  Level Washington Center
06:07AM 39.0022 -79.9617 270° West 418 481 36,000  Level Indianapolis Center
06:08AM 39.0047 -80.1028 271° West 423 487 36,000  Level Indianapolis Center
06:09AM 39.0072 -80.2536 271° West 422 486 36,000  Level Indianapolis Center
06:10AM 39.0131 -80.4036 273° West 421 484 36,000  Level Indianapolis Center
06:11AM 39.0661 -80.5364 297° West 419 482 36,000  Level Indianapolis Center
06:12AM 39.1233 -80.6653 300° West 416 479 36,000  Level Indianapolis Center
06:14AM 39.1933 -80.8217 300° West 420 483 36,000  Level Indianapolis Center
06:15AM 39.2506 -80.9531 299° West 422 486 36,000  Level Indianapolis Center
06:16AM 39.3086 -81.0839 300° West 422 486 36,000  Level Indianapolis Center
06:17AM 39.3644 -81.2164 299° West 423 487 36,000  Level Indianapolis Center
06:18AM 39.4217 -81.3478 299° West 422 486 36,000  Level Indianapolis Center
06:19AM 39.4789 -81.4789 300° West 420 483 36,000  Level Indianapolis Center
06:20AM 39.5350 -81.6106 299° West 421 484 36,000  Level Indianapolis Center
06:21AM 39.5928 -81.7444 299° West 427 491 36,000  Level Indianapolis Center
06:22AM 39.6483 -81.8781 298° West 424 488 36,000  Level Indianapolis Center
06:23AM 39.7061 -82.0128 299° West 427 491 36,000  Level Indianapolis Center
06:24AM 39.7633 -82.1494 299° West 426 490 36,000  Level Indianapolis Center
06:25AM 39.8214 -82.2867 299° West 429 494 36,000  Level Indianapolis Center
06:26AM 39.8786 -82.4233 299° West 429 494 36,000  Level Indianapolis Center
06:27AM 39.9364 -82.5611 299° West 431 496 36,000  Level Indianapolis Center
06:28AM 39.9931 -82.6983 298° West 429 494 36,000  Level Indianapolis Center
06:29AM 40.0508 -82.8381 298° West 434 499 36,000  Level Indianapolis Center
06:30AM 40.1064 -82.9742 298° West 426 490 36,000  Level Indianapolis Center
06:31AM 40.1636 -83.1128 298° West 433 498 36,000  Level Indianapolis Center
06:32AM 40.2206 -83.2547 298° West 439 505 36,000  Level Indianapolis Center
06:33AM 40.2767 -83.3939 298° West 433 498 36,000 -60 Level Indianapolis Center
06:34AM 40.3433 -83.5575 298° West 436 502 35,900  Descending Indianapolis Center
06:35AM 40.3986 -83.6956 298° West 429 494 36,000  Climbing Indianapolis Center
06:36AM 40.4536 -83.8331 298° West 424 488 35,900 -420 Descending Indianapolis Center
06:37AM 40.5075 -83.9703 297° West 422 486 35,200 -840 Descending Indianapolis Center
06:38AM 40.5614 -84.1072 297° West 419 482 34,300 -600 Descending Indianapolis Center
06:39AM 40.6161 -84.2458 298° West 422 486 34,000 -180 Descending Indianapolis Center
06:40AM 40.6711 -84.3881 297° West 431 496 34,000  Level Indianapolis Center
06:41AM 40.7264 -84.5303 297° West 434 499 34,000  Level Indianapolis Center
06:42AM 40.7858 -84.6714 299° West 436 502 34,000  Level Indianapolis Center
06:43AM 40.8442 -84.8114 299° West 431 496 34,000  Level Indianapolis Center
06:44AM 40.9006 -84.9456 299° West 427 491 34,000  Level Chicago Center
06:45AM 40.9564 -85.0839 298° West 426 490 34,000 -300 Level Chicago Center
06:46AM 41.0125 -85.2211 298° West 423 487 33,400 -1,380 Descending Chicago Center
06:47AM 41.0703 -85.3606 299° West 429 494 31,200 -2,160 Descending Chicago Center
06:48AM 41.1275 -85.5042 298° West 435 501 29,100 -2,160 Descending Chicago Center
06:49AM 41.1861 -85.6494 298° West 441 507 26,900 -2,040 Descending Chicago Center
06:50AM 41.2453 -85.7994 298° West 452 520 25,100 -960 Descending Chicago Center
06:51AM 41.2858 -85.9467 290° West 425 489 25,000 -540 Descending Chicago Center
06:52AM 41.3128 -86.0822 285° West 379 436 24,100 -960 Descending Chicago Center
06:53AM 41.3356 -86.2056 284° West 344 396 23,100 -1,020 Descending Chicago Center
06:54AM 41.3583 -86.3217 285° West 325 374 22,100 -840 Descending Chicago Center
06:55AM 41.3814 -86.4397 285° West 329 379 21,500 -900 Descending Chicago Center
06:56AM 41.4019 -86.5575 283° West 329 379 20,400 -1,140 Descending Chicago Center
06:57AM 41.4017 -86.6758 270° West 320 368 19,300 -1,200 Descending Chicago Center
06:58AM 41.4022 -86.8050 270° West 316 364 18,000 -1,140 Descending Chicago Center
06:59AM 41.4036 -86.9183 271° West 310 357 17,100 -660 Descending Chicago Center
07:00AM 41.4039 -87.0308 270° West 305 351 16,700 -960 Descending Chicago Center
07:01AM 41.4072 -87.1419 272° West 303 349 15,200 -1,680 Descending Chicago Center
07:02AM 41.4158 -87.2494 276° West 295 339 13,300 -1,740 Descending Chicago Center
07:03AM 41.4717 -87.3233 315° West 286 329 11,700 -1,440 Descending Chicago Center
07:04AM 41.5311 -87.3917 319° Northwest 285 328 10,400 -1,440 Descending Chicago Center
07:05AM 41.6033 -87.4233 342° North 283 326 8,900 -1,200 Descending Chicago Center
07:06AM 41.6767 -87.4406 350° North 273 314 8,000 -840 Descending Chicago Center
07:07AM 41.7664 -87.4556 353° North 273 314 7,200 -600 Descending Chicago Center
07:08AM 41.8442 -87.4544 North 280 322 6,800 -720 Descending Chicago Center
07:09AM 41.9208 -87.4536 360° North 279 321 5,800 -900 Descending Chicago Center
07:10AM 41.9742 -87.5011 326° Northwest 263 303 5,000 -360 Descending Chicago Center
07:11AM 41.9686 -87.5833 265° West 226 260 5,100 -300 Climbing Chicago Center
07:12AM 41.9686 -87.6572 270° West 208 239 4,400 -720 Descending Chicago Center